Time;durP1;ratioP1;P1;durP2;ratioP2;P2;SDS_P1;SDS_P2;PMS_P1;PMS_P2;Temp;Humidity;BMP_temperature;BMP_pressure;BME280_temperature;BME280_humidity;BME280_pressure;Samples;Min_cycle;Max_cycle;Signal;HPM_P1;HPM_P2
2023/06/24 00:00:37;;;;;;;5.18;4.07;;;21.60;99.90;;;;;;5068108;28;20181;-73
2023/06/24 00:03:03;;;;;;;5.40;3.92;;;21.50;99.90;;;;;;5055143;28;20184;-75
2023/06/24 00:05:28;;;;;;;5.18;3.83;;;21.50;99.90;;;;;;5054605;28;20197;-74
2023/06/24 00:07:56;;;;;;;4.97;3.88;;;21.40;99.90;;;;;;5059204;28;20187;-74
2023/06/24 00:10:25;;;;;;;5.50;3.95;;;21.40;99.90;;;;;;5066512;28;20195;-74
2023/06/24 00:12:52;;;;;;;4.10;3.70;;;21.40;99.90;;;;;;5058324;28;20543;-72
2023/06/24 00:15:22;;;;;;;4.00;3.60;;;21.40;99.90;;;;;;5086219;28;20203;-75
2023/06/24 00:17:48;;;;;;;4.63;3.88;;;21.30;99.90;;;;;;5057450;28;20268;-75
2023/06/24 00:20:17;;;;;;;4.03;3.63;;;21.30;99.90;;;;;;5058857;28;20169;-74
2023/06/24 00:22:48;;;;;;;4.35;3.80;;;21.30;99.90;;;;;;5059737;28;20183;-74
2023/06/24 00:25:14;;;;;;;5.47;4.03;;;21.30;99.90;;;;;;5051586;28;20181;-73
2023/06/24 00:27:43;;;;;;;4.05;3.65;;;21.30;99.90;;;;;;5071543;28;20172;-74
2023/06/24 00:30:09;;;;;;;5.07;4.10;;;21.30;99.90;;;;;;5071571;28;20280;-75
2023/06/24 00:32:34;;;;;;;4.38;3.97;;;21.20;99.90;;;;;;5061980;28;20173;-74
2023/06/24 00:35:00;;;;;;;4.93;4.40;;;21.20;99.90;;;;;;5075400;28;20266;-74
2023/06/24 00:37:30;;;;;;;4.90;4.40;;;21.20;99.90;;;;;;5068163;28;20260;-75
2023/06/24 00:39:56;;;;;;;5.72;3.90;;;21.10;99.90;;;;;;5057217;28;20197;-75
2023/06/24 00:42:21;;;;;;;4.10;3.70;;;21.10;99.90;;;;;;5076367;28;20183;-75
2023/06/24 00:44:48;;;;;;;4.00;3.58;;;21.10;99.90;;;;;;5069133;28;20188;-75
2023/06/24 00:47:14;;;;;;;4.40;3.95;;;21.10;99.90;;;;;;5074566;28;20267;-75
2023/06/24 00:49:39;;;;;;;4.20;3.80;;;21.00;99.90;;;;;;5058417;28;20304;-74
2023/06/24 00:52:10;;;;;;;4.40;4.00;;;21.00;99.90;;;;;;5069476;28;20180;-74
2023/06/24 00:54:36;;;;;;;4.35;3.83;;;21.00;99.90;;;;;;5072149;28;20283;-74
2023/06/24 00:57:02;;;;;;;4.70;4.00;;;21.00;99.90;;;;;;5059819;28;20219;-74
2023/06/24 00:59:31;;;;;;;4.50;4.05;;;20.90;99.90;;;;;;5058976;28;20226;-74
2023/06/24 01:01:57;;;;;;;4.78;4.07;;;20.90;99.90;;;;;;5057588;28;20270;-74
2023/06/24 01:04:25;;;;;;;4.47;4.07;;;20.90;99.90;;;;;;5056164;28;20235;-72
2023/06/24 01:06:53;;;;;;;4.72;4.22;;;20.80;99.90;;;;;;5057067;28;20196;-74
2023/06/24 01:09:19;;;;;;;4.45;3.97;;;20.80;99.90;;;;;;5074462;28;20180;-75
2023/06/24 01:11:48;;;;;;;4.78;4.03;;;20.80;99.90;;;;;;5053460;28;20271;-75
2023/06/24 01:14:14;;;;;;;5.28;4.18;;;20.80;99.90;;;;;;5063126;28;20207;-75
2023/06/24 01:16:58;;;;;;;4.38;3.97;;;20.70;99.90;;;;;;5062146;28;20238;-74
2023/06/24 01:19:48;;;;;;;4.43;4.00;;;20.70;99.90;;;;;;5043683;28;20191;-73
2023/06/24 01:22:33;;;;;;;3.95;3.65;;;20.70;99.90;;;;;;5067064;28;20200;-74
2023/06/24 01:25:35;;;;;;;5.47;3.42;;;20.70;99.90;;;;;;5064174;28;20169;-74
2023/06/24 01:28:28;;;;;;;4.80;4.18;;;20.70;99.90;;;;;;5056069;28;20262;-73
2023/06/24 01:31:06;;;;;;;4.82;4.30;;;20.60;99.90;;;;;;5057887;28;20273;-75
2023/06/24 01:33:59;;;;;;;4.57;4.00;;;20.60;99.90;;;;;;5052728;28;20201;-75
2023/06/24 01:36:26;;;;;;;4.70;4.18;;;20.60;99.90;;;;;;5075282;28;20279;-75
2023/06/24 01:38:58;;;;;;;4.25;3.70;;;20.50;99.90;;;;;;5054999;28;20187;-75
2023/06/24 01:41:26;;;;;;;4.10;3.70;;;20.50;99.90;;;;;;5055685;28;20178;-71
2023/06/24 01:43:57;;;;;;;4.47;3.72;;;20.50;99.90;;;;;;5059013;28;20196;-75
2023/06/24 01:46:29;;;;;;;4.35;3.95;;;20.50;99.90;;;;;;5066055;28;20464;-74
2023/06/24 01:48:59;;;;;;;4.45;4.05;;;20.40;99.90;;;;;;5056611;28;20211;-75
2023/06/24 01:51:28;;;;;;;4.38;3.97;;;20.40;99.90;;;;;;5054058;28;20177;-74
2023/06/24 01:54:02;;;;;;;4.43;4.03;;;20.40;99.90;;;;;;5045789;28;20250;-75
2023/06/24 01:56:31;;;;;;;4.28;3.88;;;20.40;99.90;;;;;;5058215;28;20192;-73
2023/06/24 01:59:00;;;;;;;4.80;4.30;;;20.40;99.90;;;;;;5056953;28;20254;-75
2023/06/24 02:01:27;;;;;;;4.35;3.88;;;20.30;99.90;;;;;;5062231;28;20208;-75
2023/06/24 02:03:55;;;;;;;6.53;4.03;;;20.30;99.90;;;;;;5062353;28;20185;-75
2023/06/24 02:06:23;;;;;;;4.60;3.95;;;20.30;99.90;;;;;;5057066;28;20173;-75
2023/06/24 02:08:51;;;;;;;4.53;3.88;;;20.30;99.90;;;;;;5057462;28;20201;-75
2023/06/24 02:11:18;;;;;;;4.70;4.28;;;20.30;99.90;;;;;;5057954;28;20267;-75
2023/06/24 02:13:44;;;;;;;4.55;4.03;;;20.20;99.90;;;;;;5074035;28;20220;-75
2023/06/24 02:16:12;;;;;;;4.15;3.75;;;20.20;99.90;;;;;;5055450;28;20271;-75
2023/06/24 02:18:43;;;;;;;4.25;3.80;;;20.20;99.90;;;;;;5057349;28;20177;-75
2023/06/24 02:21:09;;;;;;;4.07;3.67;;;20.10;99.90;;;;;;5057800;28;20168;-75
2023/06/24 02:23:38;;;;;;;4.65;4.00;;;20.10;99.90;;;;;;5058325;28;20287;-75
2023/06/24 02:26:05;;;;;;;5.32;3.75;;;20.10;99.90;;;;;;5058226;28;20474;-73
2023/06/24 02:28:33;;;;;;;4.20;3.63;;;20.00;99.90;;;;;;5050593;28;20181;-74
2023/06/24 02:31:01;;;;;;;4.57;4.18;;;20.00;99.90;;;;;;5065312;28;20201;-74
2023/06/24 02:33:27;;;;;;;5.95;4.10;;;20.00;99.90;;;;;;5058365;28;20201;-74
2023/06/24 02:35:53;;;;;;;5.30;4.10;;;20.00;99.90;;;;;;5085164;28;20184;-75
2023/06/24 02:38:21;;;;;;;4.65;3.90;;;20.00;99.90;;;;;;5054980;28;20288;-75
2023/06/24 02:40:47;;;;;;;4.70;4.22;;;19.90;99.90;;;;;;5047265;28;20215;-74
2023/06/24 02:43:14;;;;;;;4.45;4.05;;;19.90;99.90;;;;;;5069058;28;20169;-74
2023/06/24 02:45:39;;;;;;;4.38;3.97;;;19.90;99.90;;;;;;5047973;28;20184;-75
2023/06/24 02:48:08;;;;;;;4.22;3.83;;;19.90;99.90;;;;;;5049981;28;20212;-73
2023/06/24 02:50:34;;;;;;;4.85;4.35;;;19.90;99.90;;;;;;5075529;28;20215;-75
2023/06/24 02:53:01;;;;;;;5.07;4.20;;;19.90;99.90;;;;;;5052398;28;20173;-72
2023/06/24 02:55:30;;;;;;;4.38;3.97;;;19.80;99.90;;;;;;5053189;28;20260;-74
2023/06/24 02:57:57;;;;;;;6.00;4.20;;;19.80;99.90;;;;;;5055451;28;20189;-74
2023/06/24 03:00:25;;;;;;;4.28;3.88;;;19.80;99.90;;;;;;5051453;28;20245;-74
2023/06/24 03:02:51;;;;;;;4.80;4.30;;;19.80;99.90;;;;;;5052817;28;20186;-74
2023/06/24 03:05:18;;;;;;;4.85;4.00;;;19.80;99.90;;;;;;5053344;28;20200;-73
2023/06/24 03:07:45;;;;;;;4.95;4.35;;;19.70;99.90;;;;;;5057759;28;20176;-74
2023/06/24 03:10:11;;;;;;;3.72;3.40;;;19.70;99.90;;;;;;5054309;28;20192;-74
2023/06/24 03:12:37;;;;;;;6.47;3.78;;;19.70;99.90;;;;;;5036793;28;20189;-75
2023/06/24 03:15:09;;;;;;;5.72;3.55;;;19.70;99.90;;;;;;5075231;28;20276;-74
2023/06/24 03:17:34;;;;;;;4.40;3.90;;;19.70;99.90;;;;;;5070378;28;20254;-73
2023/06/24 03:20:04;;;;;;;4.38;3.83;;;19.60;99.90;;;;;;5069225;28;20225;-75
2023/06/24 03:22:32;;;;;;;4.22;3.72;;;19.60;99.90;;;;;;5064902;28;20176;-74
2023/06/24 03:25:02;;;;;;;4.47;3.83;;;19.60;99.90;;;;;;5057908;28;20264;-75
2023/06/24 03:27:28;;;;;;;4.15;3.75;;;19.60;99.90;;;;;;5054651;28;20197;-75
2023/06/24 03:29:56;;;;;;;4.60;4.07;;;19.60;99.90;;;;;;5054732;28;20184;-75
2023/06/24 03:32:24;;;;;;;4.22;3.83;;;19.60;99.90;;;;;;5064752;28;20193;-74
2023/06/24 03:34:52;;;;;;;4.72;4.25;;;19.60;99.90;;;;;;5066319;28;20193;-74
2023/06/24 03:37:17;;;;;;;7.28;3.95;;;19.60;99.90;;;;;;5074260;28;20173;-74
2023/06/24 03:39:45;;;;;;;4.43;3.90;;;19.60;99.90;;;;;;5073934;28;20196;-72
2023/06/24 03:42:11;;;;;;;4.45;4.05;;;19.60;99.90;;;;;;5074266;28;20423;-74
2023/06/24 03:44:36;;;;;;;6.35;4.30;;;19.50;99.90;;;;;;5070358;28;20229;-75
2023/06/24 03:47:02;;;;;;;4.57;4.18;;;19.50;99.90;;;;;;5060790;28;20211;-74
2023/06/24 03:49:28;;;;;;;5.60;4.00;;;19.50;99.90;;;;;;5061242;28;20253;-74
2023/06/24 03:51:56;;;;;;;4.28;3.88;;;19.50;99.90;;;;;;5061785;28;20184;-74
2023/06/24 03:54:26;;;;;;;4.63;4.22;;;19.50;99.90;;;;;;5061127;28;20200;-74
2023/06/24 03:56:56;;;;;;;4.63;4.10;;;19.50;99.90;;;;;;5061353;28;20173;-74
2023/06/24 03:59:24;;;;;;;4.72;4.00;;;19.50;99.90;;;;;;5061587;28;20160;-74
2023/06/24 04:01:51;;;;;;;4.57;4.07;;;19.50;99.90;;;;;;5046979;28;20201;-73
2023/06/24 04:04:19;;;;;;;5.05;4.22;;;19.50;99.90;;;;;;5064568;28;20173;-73
2023/06/24 04:06:47;;;;;;;4.65;4.15;;;19.50;99.90;;;;;;5059458;28;20185;-73
2023/06/24 04:09:17;;;;;;;4.82;3.72;;;19.50;99.90;;;;;;5060869;28;20200;-74
2023/06/24 04:11:47;;;;;;;4.80;4.32;;;19.50;99.90;;;;;;5057370;28;20264;-73
2023/06/24 04:14:13;;;;;;;4.50;4.10;;;19.50;99.90;;;;;;5046593;28;20188;-72
2023/06/24 04:16:41;;;;;;;4.93;4.05;;;19.50;99.90;;;;;;5069873;28;20175;-74
2023/06/24 04:19:09;;;;;;;6.68;4.55;;;19.50;99.90;;;;;;5059364;28;20169;-75
2023/06/24 04:21:37;;;;;;;4.82;4.30;;;19.60;99.90;;;;;;5057826;28;20187;-75
2023/06/24 04:24:03;;;;;;;4.60;4.20;;;19.60;99.90;;;;;;5076714;28;20200;-74
2023/06/24 04:26:32;;;;;;;4.53;4.13;;;19.60;99.90;;;;;;5055948;28;20173;-75
2023/06/24 04:28:58;;;;;;;4.40;3.88;;;19.60;99.90;;;;;;5074393;28;20196;-75
2023/06/24 04:31:23;;;;;;;11.57;8.88;;;19.60;99.90;;;;;;5070289;28;20172;-75
2023/06/24 04:33:49;;;;;;;7.57;6.22;;;19.60;99.90;;;;;;5058005;28;20284;-74
2023/06/24 04:36:15;;;;;;;5.70;5.20;;;19.70;99.90;;;;;;5056197;28;20228;-75
2023/06/24 04:38:41;;;;;;;6.07;5.47;;;19.70;99.90;;;;;;5044593;28;20240;-75
2023/06/24 04:41:07;;;;;;;6.07;5.25;;;19.70;99.90;;;;;;5062976;28;20211;-75
2023/06/24 04:43:36;;;;;;;13.07;9.43;;;19.70;99.90;;;;;;5057372;28;20197;-74
2023/06/24 04:46:02;;;;;;;7.85;6.32;;;19.70;99.90;;;;;;5046056;28;20172;-74
2023/06/24 04:48:27;;;;;;;8.43;5.95;;;19.70;99.90;;;;;;5057348;28;20847;-73
2023/06/24 04:50:54;;;;;;;6.15;5.38;;;19.80;99.90;;;;;;5075186;28;20206;-75
2023/06/24 04:53:23;;;;;;;5.50;4.90;;;19.80;99.90;;;;;;5060080;28;20176;-75
2023/06/24 04:55:49;;;;;;;5.20;4.70;;;19.90;99.90;;;;;;5061409;28;20184;-75
2023/06/24 04:58:17;;;;;;;5.03;4.53;;;19.90;99.90;;;;;;5062010;28;20170;-75
2023/06/24 05:00:45;;;;;;;5.35;4.70;;;19.90;99.90;;;;;;5059994;28;20207;-75
2023/06/24 05:03:10;;;;;;;5.53;4.97;;;20.00;99.90;;;;;;5072960;28;20219;-73
2023/06/24 05:05:36;;;;;;;6.07;5.05;;;20.00;99.90;;;;;;5047846;28;20197;-74
2023/06/24 05:08:02;;;;;;;5.68;4.80;;;20.10;99.90;;;;;;5063529;28;20204;-74
2023/06/24 05:10:27;;;;;;;4.90;4.38;;;20.10;99.90;;;;;;5058377;28;20211;-72
2023/06/24 05:12:53;;;;;;;6.25;4.60;;;20.20;99.90;;;;;;5070792;28;20191;-75
2023/06/24 05:15:23;;;;;;;4.72;4.22;;;20.20;99.90;;;;;;5055876;28;20242;-74
2023/06/24 05:17:56;;;;;;;5.55;4.35;;;20.30;99.90;;;;;;5057671;28;20193;-75
2023/06/24 05:20:21;;;;;;;4.55;4.13;;;20.30;99.90;;;;;;5065708;28;20188;-75
2023/06/24 05:22:49;;;;;;;4.80;4.35;;;20.40;99.90;;;;;;5064912;28;20268;-74
2023/06/24 05:25:15;;;;;;;34.75;13.32;;;20.50;99.90;;;;;;5055968;28;20197;-74
2023/06/24 05:27:44;;;;;;;13.30;7.30;;;20.50;99.90;;;;;;5064188;28;20207;-75
2023/06/24 05:30:10;;;;;;;7.22;5.55;;;20.50;99.90;;;;;;5060280;28;20180;-73
2023/06/24 05:32:36;;;;;;;7.47;5.07;;;20.60;99.90;;;;;;5058405;28;20231;-73
2023/06/24 05:35:01;;;;;;;6.25;5.03;;;20.60;99.90;;;;;;5060825;28;20197;-72
2023/06/24 05:37:27;;;;;;;5.50;4.78;;;20.70;99.90;;;;;;5064364;28;20184;-74
2023/06/24 05:39:56;;;;;;;6.72;4.93;;;20.70;99.90;;;;;;5059029;28;20549;-74
2023/06/24 05:42:22;;;;;;;5.43;4.38;;;20.80;99.90;;;;;;5064947;28;20180;-76
2023/06/24 05:44:48;;;;;;;6.22;4.60;;;20.80;99.90;;;;;;5055235;28;20213;-74
2023/06/24 05:47:14;;;;;;;4.95;4.15;;;20.90;99.90;;;;;;5064978;28;20239;-74
2023/06/24 05:49:44;;;;;;;5.47;4.90;;;20.90;99.90;;;;;;5059495;28;20204;-75
2023/06/24 05:52:12;;;;;;;4.47;4.07;;;21.00;99.90;;;;;;5058439;28;20200;-73
2023/06/24 05:54:37;;;;;;;4.85;4.38;;;21.00;99.90;;;;;;5045181;28;20203;-73
2023/06/24 05:57:10;;;;;;;5.40;4.03;;;21.10;99.90;;;;;;5051506;28;20177;-71
2023/06/24 05:59:35;;;;;;;4.15;3.75;;;21.10;99.90;;;;;;5064512;28;20292;-74
2023/06/24 06:02:03;;;;;;;4.85;3.70;;;21.20;99.90;;;;;;5054997;28;20275;-76
2023/06/24 06:04:29;;;;;;;5.10;3.72;;;21.20;99.90;;;;;;5070326;28;20172;-76
2023/06/24 06:06:57;;;;;;;3.75;3.35;;;21.30;99.90;;;;;;5069195;28;20204;-73
2023/06/24 06:09:25;;;;;;;6.63;4.78;;;21.30;99.90;;;;;;5058105;28;20223;-72
2023/06/24 06:11:53;;;;;;;4.90;4.40;;;21.30;99.90;;;;;;5057577;28;20192;-73
2023/06/24 06:14:18;;;;;;;4.38;3.95;;;21.40;99.90;;;;;;5062854;28;20350;-76
2023/06/24 06:16:44;;;;;;;6.82;4.18;;;21.40;99.90;;;;;;5059084;28;20239;-75
2023/06/24 06:19:10;;;;;;;4.30;3.90;;;21.50;99.90;;;;;;5057317;28;20176;-74
2023/06/24 06:21:37;;;;;;;3.95;3.58;;;21.50;99.90;;;;;;5058502;28;20177;-75
2023/06/24 06:24:02;;;;;;;4.43;4.03;;;21.60;99.90;;;;;;5057771;28;20168;-75
2023/06/24 06:26:30;;;;;;;6.53;4.15;;;21.60;99.90;;;;;;5052009;28;20235;-75
2023/06/24 06:28:56;;;;;;;4.15;3.75;;;21.70;99.90;;;;;;5048865;28;20234;-74
2023/06/24 06:31:25;;;;;;;4.82;4.28;;;21.70;99.90;;;;;;5065351;28;20181;-76
2023/06/24 06:33:53;;;;;;;5.75;3.90;;;21.80;99.90;;;;;;5074961;28;20208;-75
2023/06/24 06:36:21;;;;;;;4.60;4.15;;;21.90;99.90;;;;;;5050095;28;20183;-76
2023/06/24 06:38:49;;;;;;;6.75;3.97;;;21.90;99.90;;;;;;5056689;28;20202;-77
2023/06/24 06:41:23;;;;;;;4.03;3.63;;;22.00;99.90;;;;;;5052881;28;20196;-74
2023/06/24 06:43:52;;;;;;;4.70;4.20;;;22.10;99.90;;;;;;5058005;28;20249;-73
2023/06/24 06:46:17;;;;;;;5.10;4.55;;;22.10;99.90;;;;;;5038935;28;20191;-74
2023/06/24 06:48:43;;;;;;;5.88;4.82;;;22.20;99.90;;;;;;5049069;28;20197;-74
2023/06/24 06:51:09;;;;;;;5.78;4.35;;;22.20;99.90;;;;;;5062253;28;20187;-73
2023/06/24 06:53:34;;;;;;;6.95;4.75;;;22.30;99.90;;;;;;5056459;28;20345;-75
2023/06/24 06:56:00;;;;;;;7.32;6.20;;;22.30;99.90;;;;;;5062093;28;20197;-74
2023/06/24 06:58:26;;;;;;;6.68;5.28;;;22.40;99.90;;;;;;5054043;28;20177;-75
2023/06/24 07:00:51;;;;;;;6.05;4.80;;;22.50;99.90;;;;;;5053949;28;20263;-76
2023/06/24 07:03:17;;;;;;;5.20;4.70;;;22.50;99.90;;;;;;5064481;28;20169;-76
2023/06/24 07:05:43;;;;;;;6.07;5.25;;;22.60;99.90;;;;;;5044097;28;20183;-75
2023/06/24 07:08:11;;;;;;;5.38;4.80;;;22.60;99.90;;;;;;5068747;28;20200;-73
2023/06/24 07:10:37;;;;;;;5.63;4.65;;;22.60;99.90;;;;;;5072871;28;20233;-74
2023/06/24 07:13:02;;;;;;;5.72;4.95;;;22.70;99.90;;;;;;5047386;28;20259;-78
2023/06/24 07:15:28;;;;;;;5.32;4.05;;;22.70;99.90;;;;;;5061572;28;20209;-76
2023/06/24 07:17:54;;;;;;;4.55;4.00;;;22.80;99.90;;;;;;5041431;28;20195;-77
2023/06/24 07:20:21;;;;;;;7.78;6.88;;;22.90;99.90;;;;;;5065158;28;20219;-76
2023/06/24 07:22:49;;;;;;;6.95;6.15;;;22.90;99.90;;;;;;5062807;28;20204;-75
2023/06/24 07:25:17;;;;;;;6.82;5.35;;;23.00;99.90;;;;;;5067442;28;20191;-74
2023/06/24 07:27:43;;;;;;;6.30;4.97;;;23.10;99.90;;;;;;5073493;28;20169;-76
2023/06/24 07:30:09;;;;;;;5.82;4.38;;;23.20;99.90;;;;;;5067877;28;20192;-74
2023/06/24 07:32:34;;;;;;;5.70;4.80;;;23.30;99.90;;;;;;5068900;28;20189;-74
2023/06/24 07:35:00;;;;;;;5.47;4.90;;;23.30;99.90;;;;;;5053906;28;20200;-75
2023/06/24 07:37:28;;;;;;;5.45;4.18;;;23.40;99.90;;;;;;5056541;28;20253;-74
2023/06/24 07:39:56;;;;;;;6.32;5.10;;;23.50;99.90;;;;;;5054528;28;20215;-75
2023/06/24 07:42:22;;;;;;;5.70;4.78;;;23.50;99.90;;;;;;5054894;28;20256;-75
2023/06/24 07:44:48;;;;;;;5.10;4.60;;;23.60;99.90;;;;;;5077842;28;20279;-76
2023/06/24 07:47:16;;;;;;;5.15;4.65;;;23.60;99.90;;;;;;5056493;28;20219;-67
2023/06/24 07:49:44;;;;;;;7.07;4.40;;;23.70;99.90;;;;;;5055004;28;20197;-67
2023/06/24 07:52:09;;;;;;;6.22;4.88;;;23.70;99.90;;;;;;5069880;28;20435;-67
2023/06/24 07:54:35;;;;;;;7.97;4.68;;;23.70;99.90;;;;;;5055341;28;20307;-67
2023/06/24 07:57:01;;;;;;;6.88;4.70;;;23.80;99.90;;;;;;5055272;28;20242;-67
2023/06/24 07:59:27;;;;;;;5.85;4.97;;;23.80;99.90;;;;;;5066099;28;20259;-67
2023/06/24 08:01:54;;;;;;;6.88;5.03;;;23.90;99.90;;;;;;5055096;28;20292;-67
2023/06/24 08:04:22;;;;;;;6.38;4.57;;;23.90;99.90;;;;;;5056648;28;20192;-67
2023/06/24 08:06:48;;;;;;;5.20;4.18;;;24.00;99.90;;;;;;5045956;28;20270;-67
2023/06/24 08:09:19;;;;;;;5.13;4.28;;;24.10;99.90;;;;;;5051249;28;20185;-68
2023/06/24 08:11:47;;;;;;;6.22;4.38;;;24.10;99.90;;;;;;5053044;28;20210;-68
2023/06/24 08:14:17;;;;;;;6.05;4.88;;;24.20;99.90;;;;;;5059706;28;20201;-67
2023/06/24 08:16:45;;;;;;;6.18;5.38;;;24.30;99.90;;;;;;5044819;28;20177;-67
2023/06/24 08:19:10;;;;;;;7.30;4.85;;;24.30;99.90;;;;;;5056833;28;20177;-67
2023/06/24 08:21:37;;;;;;;5.82;4.70;;;24.40;99.90;;;;;;5050364;28;20226;-67
2023/06/24 08:24:06;;;;;;;5.95;5.30;;;24.40;99.90;;;;;;5055940;28;20230;-67
2023/06/24 08:26:34;;;;;;;6.65;4.85;;;24.50;99.90;;;;;;5047177;28;20177;-67
2023/06/24 08:29:02;;;;;;;5.43;4.40;;;24.50;99.90;;;;;;5056298;28;20267;-67
2023/06/24 08:31:28;;;;;;;5.47;4.75;;;24.50;99.90;;;;;;5068095;28;20192;-68
2023/06/24 08:33:56;;;;;;;5.03;4.53;;;24.60;99.90;;;;;;5058858;28;20193;-66
2023/06/24 08:36:23;;;;;;;6.05;4.63;;;24.60;99.90;;;;;;5059439;28;20220;-70
2023/06/24 08:38:49;;;;;;;5.22;4.50;;;24.70;99.90;;;;;;5058890;28;20201;-68
2023/06/24 08:41:15;;;;;;;5.32;4.28;;;24.70;99.90;;;;;;5077484;28;20179;-67
2023/06/24 08:43:41;;;;;;;5.15;4.10;;;24.80;99.90;;;;;;5059270;28;20212;-69
2023/06/24 08:46:09;;;;;;;6.93;4.03;;;24.80;99.90;;;;;;5056796;28;20182;-69
2023/06/24 08:48:40;;;;;;;4.97;3.95;;;24.90;99.90;;;;;;5053119;28;20185;-69
2023/06/24 08:51:08;;;;;;;5.97;4.07;;;24.90;99.90;;;;;;5068679;28;20197;-69
2023/06/24 08:53:38;;;;;;;6.60;4.28;;;25.00;99.90;;;;;;5058347;28;20187;-70
2023/06/24 08:56:04;;;;;;;5.13;3.97;;;25.00;99.90;;;;;;5060360;28;20259;-66
2023/06/24 08:58:30;;;;;;;6.72;4.78;;;25.10;99.90;;;;;;5067843;28;20224;-66
2023/06/24 09:00:56;;;;;;;5.70;4.15;;;25.20;99.90;;;;;;5059474;28;20258;-67
2023/06/24 09:03:22;;;;;;;4.15;3.70;;;25.20;99.90;;;;;;5057164;28;20188;-67
2023/06/24 09:05:48;;;;;;;4.50;4.00;;;25.30;99.90;;;;;;5046214;28;20215;-66
2023/06/24 09:08:15;;;;;;;5.03;3.95;;;25.40;99.90;;;;;;5059277;28;20165;-67
2023/06/24 09:10:41;;;;;;;5.72;4.28;;;25.40;99.90;;;;;;5053982;28;20217;-69
2023/06/24 09:13:07;;;;;;;4.97;4.47;;;25.50;99.90;;;;;;5061437;28;20197;-68
2023/06/24 09:15:34;;;;;;;5.55;4.47;;;25.50;99.90;;;;;;5076732;28;20197;-67
2023/06/24 09:18:03;;;;;;;5.20;4.57;;;25.60;99.90;;;;;;5072908;28;20268;-67
2023/06/24 09:20:32;;;;;;;5.38;4.35;;;25.70;99.90;;;;;;5073247;28;20179;-67
2023/06/24 09:22:59;;;;;;;5.80;4.78;;;25.70;99.90;;;;;;5059877;28;20192;-69
2023/06/24 09:25:28;;;;;;;5.47;4.25;;;25.80;99.90;;;;;;5063686;28;20191;-68
2023/06/24 09:27:55;;;;;;;7.43;4.32;;;25.80;99.90;;;;;;5059623;28;20204;-70
2023/06/24 09:30:22;;;;;;;7.63;4.32;;;25.90;99.90;;;;;;5075109;28;20161;-70
2023/06/24 09:32:49;;;;;;;5.60;4.57;;;26.00;99.90;;;;;;5063552;28;20195;-71
2023/06/24 09:35:21;;;;;;;4.43;4.03;;;26.00;99.90;;;;;;5057461;28;20208;-72
2023/06/24 09:37:55;;;;;;;4.97;4.07;;;26.10;99.90;;;;;;5054648;28;20268;-70
2023/06/24 09:40:23;;;;;;;4.25;3.85;;;26.20;99.90;;;;;;5047474;28;20193;-69
2023/06/24 09:42:54;;;;;;;4.75;4.15;;;26.30;99.90;;;;;;5045364;28;20177;-72
2023/06/24 09:45:30;;;;;;;4.88;3.70;;;26.40;99.90;;;;;;5080131;28;20172;-72
2023/06/24 09:47:59;;;;;;;4.93;4.25;;;26.50;99.90;;;;;;5057389;28;20248;-70
2023/06/24 09:50:27;;;;;;;5.57;3.75;;;26.60;99.90;;;;;;5050356;28;20197;-71
2023/06/24 09:52:56;;;;;;;5.47;4.60;;;26.70;99.90;;;;;;5058156;28;20204;-71
2023/06/24 09:55:25;;;;;;;6.47;4.53;;;26.80;99.90;;;;;;5060860;28;20222;-71
2023/06/24 09:57:54;;;;;;;5.70;4.63;;;26.80;99.90;;;;;;5057455;28;20177;-71
2023/06/24 10:00:21;;;;;;;5.53;4.10;;;26.80;99.90;;;;;;5048540;28;20300;-72
2023/06/24 10:02:47;;;;;;;6.40;3.92;;;26.90;99.90;;;;;;5059399;28;20299;-72
2023/06/24 10:05:16;;;;;;;4.82;3.83;;;26.90;99.90;;;;;;5074050;28;20197;-72
2023/06/24 10:07:42;;;;;;;4.32;3.90;;;26.90;99.90;;;;;;5072926;28;20204;-72
2023/06/24 10:10:11;;;;;;;5.25;3.60;;;27.00;99.90;;;;;;5074245;28;20197;-72
2023/06/24 10:12:40;;;;;;;5.07;3.63;;;27.00;99.90;;;;;;5058665;28;20188;-72
2023/06/24 10:15:06;;;;;;;5.50;4.38;;;27.00;99.90;;;;;;5055071;28;20262;-72
2023/06/24 10:17:32;;;;;;;5.38;3.53;;;27.10;99.90;;;;;;5055377;28;20170;-70
2023/06/24 10:19:58;;;;;;;5.70;4.30;;;27.20;99.90;;;;;;5048018;28;20169;-71
2023/06/24 10:22:25;;;;;;;4.90;3.53;;;27.20;99.90;;;;;;5063592;28;20196;-70
2023/06/24 10:25:01;;;;;;;3.88;3.45;;;27.40;99.90;;;;;;5052061;28;20177;-71
2023/06/24 10:27:31;;;;;;;4.35;3.28;;;27.40;99.90;;;;;;5077058;28;20267;-70
2023/06/24 10:30:03;;;;;;;4.47;3.88;;;27.60;99.90;;;;;;5053509;28;20236;-69
2023/06/24 10:32:41;;;;;;;3.90;3.50;;;27.80;99.90;;;;;;5056174;28;20237;-69
2023/06/24 10:35:07;;;;;;;4.90;3.28;;;27.90;99.90;;;;;;5057736;28;20220;-71
2023/06/24 10:37:35;;;;;;;4.00;3.40;;;28.10;99.90;;;;;;5055509;28;20184;-71
2023/06/24 10:40:02;;;;;;;4.30;3.38;;;28.20;99.90;;;;;;5056256;28;20172;-70
2023/06/24 10:42:33;;;;;;;3.60;2.97;;;28.40;99.90;;;;;;5051310;28;20173;-71
2023/06/24 10:45:08;;;;;;;3.72;3.17;;;28.60;99.90;;;;;;5052340;28;20461;-71
2023/06/24 10:47:52;;;;;;;6.03;4.10;;;28.80;99.90;;;;;;5063884;28;20214;-70
2023/06/24 10:50:23;;;;;;;3.60;3.10;;;29.00;99.90;;;;;;5053106;28;20199;-71
2023/06/24 10:52:55;;;;;;;4.63;3.72;;;29.30;99.90;;;;;;5054892;28;20212;-71
2023/06/24 10:55:26;;;;;;;3.95;3.33;;;29.50;99.90;;;;;;5054496;28;20353;-70
2023/06/24 10:57:51;;;;;;;3.80;3.40;;;29.70;99.90;;;;;;5044821;28;20177;-70
2023/06/24 11:00:17;;;;;;;4.18;3.38;;;29.90;99.90;;;;;;5054908;28;20241;-71
2023/06/24 11:02:44;;;;;;;3.50;3.05;;;30.10;99.90;;;;;;5053186;28;20177;-71
2023/06/24 11:05:12;;;;;;;3.25;2.95;;;30.30;99.90;;;;;;5045589;28;20188;-71
2023/06/24 11:07:39;;;;;;;3.53;3.13;;;30.30;99.90;;;;;;5063356;28;20167;-71
2023/06/24 11:10:15;;;;;;;3.35;2.85;;;30.30;99.90;;;;;;5066433;28;20172;-70
2023/06/24 11:12:42;;;;;;;4.13;3.20;;;30.20;99.90;;;;;;5065641;28;20168;-71
2023/06/24 11:15:12;;;;;;;3.83;3.38;;;30.00;99.90;;;;;;5058115;28;20188;-70
2023/06/24 11:18:12;;;;;;;3.78;3.40;;;30.00;99.90;;;;;;5064107;28;20756;-71
2023/06/24 11:20:39;;;;;;;3.80;3.10;;;29.90;99.90;;;;;;5063257;28;20189;-71
2023/06/24 11:23:11;;;;;;;3.78;3.10;;;29.90;99.90;;;;;;5011436;28;20268;-71
2023/06/24 11:25:43;;;;;;;4.05;3.00;;;30.00;99.90;;;;;;5000396;28;20182;-72
2023/06/24 11:28:13;;;;;;;3.47;3.08;;;30.10;99.90;;;;;;5002836;28;20182;-71
2023/06/24 11:30:39;;;;;;;4.40;3.17;;;30.20;99.90;;;;;;5020817;28;20166;-71
2023/06/24 11:33:05;;;;;;;3.63;3.08;;;30.40;99.90;;;;;;5015369;28;20173;-71
2023/06/24 11:35:35;;;;;;;6.95;3.10;;;30.60;99.90;;;;;;5013624;28;20197;-70
2023/06/24 11:38:03;;;;;;;3.13;2.83;;;30.80;99.90;;;;;;5015104;28;20280;-70
2023/06/24 11:40:33;;;;;;;4.40;2.80;;;31.00;99.90;;;;;;5047424;28;20257;-70
2023/06/24 11:43:00;;;;;;;3.30;2.95;;;31.20;99.90;;;;;;5030070;28;20213;-70
2023/06/24 11:45:26;;;;;;;3.25;2.88;;;31.30;99.90;;;;;;5014696;28;20201;-70
2023/06/24 11:47:53;;;;;;;3.00;2.70;;;31.40;99.90;;;;;;5014196;28;20229;-70
2023/06/24 11:50:26;;;;;;;3.05;2.58;;;31.50;99.90;;;;;;5014346;28;20205;-70
2023/06/24 11:52:53;;;;;;;3.00;2.55;;;31.60;99.90;;;;;;5023133;28;20205;-71
2023/06/24 11:55:24;;;;;;;4.30;3.30;;;31.70;99.90;;;;;;4997480;28;20272;-67
2023/06/24 11:58:18;;;;;;;9.80;3.20;;;31.80;99.90;;;;;;5010626;28;20217;-68
2023/06/24 12:00:46;;;;;;;3.10;2.80;;;32.00;99.90;;;;;;5045281;28;20253;-67
2023/06/24 12:03:12;;;;;;;3.13;2.70;;;32.10;99.90;;;;;;5001090;28;20201;-68
2023/06/24 12:05:44;;;;;;;3.25;2.80;;;32.30;99.90;;;;;;5011619;28;20240;-68
2023/06/24 12:08:11;;;;;;;3.80;2.90;;;32.50;99.90;;;;;;5010208;28;20181;-68
2023/06/24 12:10:38;;;;;;;3.35;2.97;;;32.50;99.90;;;;;;5029463;28;20188;-67
2023/06/24 12:13:10;;;;;;;3.92;2.88;;;32.60;99.90;;;;;;5013336;28;20186;-67
2023/06/24 12:15:38;;;;;;;3.10;2.80;;;32.70;99.90;;;;;;5020802;28;20175;-67
2023/06/24 12:18:05;;;;;;;5.10;2.97;;;32.80;99.90;;;;;;5010947;28;20213;-67
2023/06/24 12:20:34;;;;;;;3.75;2.70;;;32.80;99.90;;;;;;5030603;28;20188;-68
2023/06/24 12:23:00;;;;;;;2.75;2.45;;;32.90;99.90;;;;;;5014330;28;20512;-67
2023/06/24 12:25:26;;;;;;;2.92;2.72;;;32.90;99.90;;;;;;5009725;28;20178;-68
2023/06/24 12:27:56;;;;;;;2.88;2.55;;;32.80;99.90;;;;;;5001736;28;20183;-67
2023/06/24 12:30:24;;;;;;;2.75;2.35;;;32.70;99.90;;;;;;5016783;28;20208;-67
2023/06/24 12:32:53;;;;;;;3.03;2.67;;;32.50;99.90;;;;;;5001271;28;20265;-68
2023/06/24 12:35:19;;;;;;;3.33;2.72;;;32.40;99.90;;;;;;5007745;28;20232;-68
2023/06/24 12:37:47;;;;;;;4.65;2.80;;;32.30;99.90;;;;;;5008867;28;20198;-68
2023/06/24 12:40:15;;;;;;;3.70;2.95;;;32.10;99.90;;;;;;5000578;28;20182;-69
2023/06/24 12:42:41;;;;;;;2.97;2.67;;;32.10;99.90;;;;;;5000525;28;20190;-68
2023/06/24 12:45:09;;;;;;;3.05;2.67;;;32.00;99.90;;;;;;5003035;28;20239;-68
2023/06/24 12:47:35;;;;;;;3.03;2.72;;;31.90;99.90;;;;;;5012752;28;20218;-67
2023/06/24 12:50:01;;;;;;;3.30;3.00;;;31.80;99.90;;;;;;4996213;28;20230;-68